createdAt,value
2018-06-30T00:00:06.111Z,50.67
2018-06-30T00:01:06.131Z,50.76
2018-06-30T00:02:06.154Z,50.76
2018-06-30T00:03:06.183Z,50.76
2018-06-30T00:04:06.207Z,50.76
2018-06-30T00:05:06.227Z,50.67
2018-06-30T00:06:06.249Z,50.57
2018-06-30T00:07:06.275Z,50.67
2018-06-30T00:08:06.300Z,50.67
2018-06-30T00:09:06.320Z,50.47
2018-06-30T00:10:06.346Z,50.86
2018-06-30T00:11:06.364Z,50.64
2018-06-30T00:12:06.389Z,51.05
2018-06-30T00:13:06.415Z,50.47
2018-06-30T00:14:06.439Z,50.67
2018-06-30T00:15:06.462Z,50.57
2018-06-30T00:16:06.482Z,50.84
2018-06-30T00:17:06.510Z,50.57
2018-06-30T00:18:06.533Z,50.76
2018-06-30T00:19:06.559Z,50.93
2018-06-30T00:20:06.583Z,50.76
2018-06-30T00:21:06.601Z,50.67
2018-06-30T00:22:06.623Z,50.67
2018-06-30T00:23:06.656Z,50.57
2018-06-30T00:24:06.673Z,50.47
2018-06-30T00:25:06.699Z,50.67
2018-06-30T00:26:06.722Z,50.54
2018-06-30T00:27:06.743Z,50.64
2018-06-30T00:28:06.769Z,50.64
2018-06-30T00:29:06.795Z,50.93
2018-06-30T00:30:06.824Z,50.96
2018-06-30T00:31:06.834Z,50.67
2018-06-30T00:32:06.858Z,50.64
2018-06-30T00:33:06.884Z,50.86
2018-06-30T00:34:06.906Z,50.64
2018-06-30T00:35:06.934Z,50.84
2018-06-30T00:36:06.957Z,50.84
2018-06-30T00:37:06.975Z,50.64
2018-06-30T00:38:06.998Z,50.45
2018-06-30T00:39:07.027Z,50.74
2018-06-30T00:40:07.050Z,50.84
2018-06-30T00:41:07.077Z,50.84
2018-06-30T00:42:07.097Z,50.93
2018-06-30T00:43:07.121Z,50.64
2018-06-30T00:44:07.143Z,50.93
2018-06-30T00:45:07.169Z,50.64
2018-06-30T00:46:07.191Z,50.84
2018-06-30T00:47:07.212Z,50.74
2018-06-30T00:48:07.235Z,50.54
2018-06-30T00:49:07.263Z,50.84
2018-06-30T00:50:07.281Z,50.84
2018-06-30T00:51:07.307Z,50.74
2018-06-30T00:52:07.331Z,50.54
2018-06-30T00:53:07.352Z,50.84
2018-06-30T00:54:07.376Z,50.84
2018-06-30T00:55:07.405Z,50.74
2018-06-30T00:56:07.429Z,51.12
2018-06-30T00:57:07.449Z,51.03
2018-06-30T00:58:07.477Z,50.74
2018-06-30T00:59:07.491Z,51.03
2018-06-30T01:00:07.514Z,51.03
2018-06-30T01:01:07.547Z,50.74
2018-06-30T01:02:07.564Z,50.93
2018-06-30T01:03:07.584Z,51.03
2018-06-30T01:04:07.608Z,50.74
2018-06-30T01:05:07.636Z,51.03
2018-06-30T01:06:07.656Z,51.12
2018-06-30T01:07:07.690Z,51.03
2018-06-30T01:08:07.706Z,51.03
2018-06-30T01:09:07.725Z,50.93
2018-06-30T01:10:07.748Z,51.03
2018-06-30T01:11:07.778Z,51.03
2018-06-30T01:12:07.802Z,50.93
2018-06-30T01:13:07.823Z,50.93
2018-06-30T01:14:07.847Z,50.93
2018-06-30T01:15:07.867Z,50.84
2018-06-30T01:16:07.892Z,50.93
2018-06-30T01:17:07.918Z,51.12
2018-06-30T01:18:07.939Z,51.22
2018-06-30T01:19:07.960Z,51.22
2018-06-30T01:20:07.984Z,50.93
2018-06-30T01:21:08.006Z,51.22
2018-06-30T01:22:08.029Z,51.32
2018-06-30T01:23:08.055Z,51.32
2018-06-30T01:24:08.079Z,51.22
2018-06-30T01:25:08.100Z,51.41
2018-06-30T01:26:08.124Z,51.22
2018-06-30T01:27:08.150Z,51.22
2018-06-30T01:28:08.175Z,51.61
2018-06-30T01:29:08.199Z,51.41
2018-06-30T01:30:08.219Z,51.41
2018-06-30T01:31:08.240Z,51.61
2018-06-30T01:32:08.262Z,51.51
2018-06-30T01:33:08.287Z,51.41
2018-06-30T01:34:08.310Z,51.32
2018-06-30T01:35:08.338Z,51.32
2018-06-30T01:36:08.365Z,51.41
2018-06-30T01:37:08.382Z,51.41
2018-06-30T01:38:08.407Z,51.32
2018-06-30T01:39:08.428Z,51.41
2018-06-30T01:40:08.449Z,51.51
2018-06-30T01:41:08.476Z,51.32
2018-06-30T01:42:08.498Z,51.32
2018-06-30T01:43:08.520Z,51.89
2018-06-30T01:44:08.543Z,51.61
2018-06-30T01:45:08.564Z,51.61
2018-06-30T01:46:08.587Z,51.51
2018-06-30T01:47:08.614Z,51.51
2018-06-30T01:48:08.639Z,51.51
2018-06-30T01:49:08.664Z,51.51
2018-06-30T01:50:08.680Z,51.51
2018-06-30T01:51:08.733Z,51.41
2018-06-30T01:52:08.732Z,51.70
2018-06-30T01:53:08.756Z,51.51
2018-06-30T01:54:08.779Z,51.51
2018-06-30T01:55:08.799Z,51.51
2018-06-30T01:56:08.826Z,51.51
2018-06-30T01:57:08.848Z,51.51
2018-06-30T01:58:08.870Z,51.32
2018-06-30T01:59:08.890Z,51.32
2018-06-30T02:00:08.914Z,51.61
2018-06-30T02:01:08.939Z,51.70
2018-06-30T02:02:08.962Z,52.09
2018-06-30T02:03:08.988Z,52.19
2018-06-30T02:04:09.012Z,52.37
2018-06-30T02:05:09.034Z,52.09
2018-06-30T02:06:09.077Z,52.28
2018-06-30T02:07:09.087Z,52.19
2018-06-30T02:08:09.106Z,51.99
2018-06-30T02:09:09.129Z,52.09
2018-06-30T02:10:09.149Z,52.19
2018-06-30T02:11:09.173Z,52.09
2018-06-30T02:12:09.194Z,51.70
2018-06-30T02:13:09.222Z,52.19
2018-06-30T02:14:09.246Z,51.99
2018-06-30T02:15:09.265Z,51.89
2018-06-30T02:16:09.287Z,51.80
2018-06-30T02:17:09.309Z,51.70
2018-06-30T02:18:09.333Z,51.99
2018-06-30T02:19:09.361Z,52.09
2018-06-30T02:20:09.383Z,52.19
2018-06-30T02:21:09.401Z,52.09
2018-06-30T02:22:09.424Z,51.99
2018-06-30T02:23:09.452Z,52.19
2018-06-30T02:24:09.475Z,52.09
2018-06-30T02:25:09.500Z,51.99
2018-06-30T02:26:09.523Z,52.09
2018-06-30T02:27:09.542Z,52.28
2018-06-30T02:28:09.565Z,52.25
2018-06-30T02:29:09.591Z,52.37
2018-06-30T02:30:09.614Z,52.37
2018-06-30T02:31:09.640Z,52.28
2018-06-30T02:32:09.657Z,52.47
2018-06-30T02:33:09.683Z,52.57
2018-06-30T02:34:09.706Z,52.47
2018-06-30T02:35:09.743Z,52.47
2018-06-30T02:36:09.756Z,52.47
2018-06-30T02:37:09.772Z,52.28
2018-06-30T02:38:09.798Z,52.28
2018-06-30T02:39:09.874Z,52.28
2018-06-30T02:40:09.846Z,52.47
2018-06-30T02:41:09.870Z,52.28
2018-06-30T02:42:09.894Z,52.37
2018-06-30T02:43:09.914Z,52.28
2018-06-30T02:44:09.938Z,52.19
2018-06-30T02:45:09.962Z,52.19
2018-06-30T02:46:09.993Z,52.28
2018-06-30T02:47:10.005Z,52.09
2018-06-30T02:48:10.027Z,52.28
2018-06-30T02:49:10.055Z,52.19
2018-06-30T02:50:10.075Z,52.19
2018-06-30T02:51:10.104Z,52.19
2018-06-30T02:52:10.125Z,52.19
2018-06-30T02:53:10.148Z,52.28
2018-06-30T02:54:10.178Z,52.28
2018-06-30T02:55:10.195Z,52.19
2018-06-30T02:56:10.218Z,52.37
2018-06-30T02:57:10.241Z,52.37
2018-06-30T02:58:10.263Z,52.37
2018-06-30T02:59:10.281Z,52.37
2018-06-30T03:00:10.305Z,52.37
2018-06-30T03:01:10.336Z,52.37
2018-06-30T03:02:10.357Z,52.47
2018-06-30T03:03:10.376Z,52.67
2018-06-30T03:04:10.400Z,52.47
2018-06-30T03:05:10.424Z,52.37
2018-06-30T03:06:10.443Z,52.47
2018-06-30T03:07:10.474Z,52.47
2018-06-30T03:08:10.494Z,52.47
2018-06-30T03:09:10.513Z,52.47
2018-06-30T03:10:10.538Z,52.28
2018-06-30T03:11:10.565Z,52.09
2018-06-30T03:12:10.588Z,52.19
2018-06-30T03:13:10.611Z,52.28
2018-06-30T03:14:10.636Z,52.47
2018-06-30T03:15:10.654Z,52.47
2018-06-30T03:16:10.680Z,52.47
2018-06-30T03:17:10.703Z,52.11
2018-06-30T03:18:10.725Z,51.53
2018-06-30T03:19:10.749Z,51.25
2018-06-30T03:20:10.774Z,50.21
2018-06-30T03:21:10.795Z,49.85
2018-06-30T03:22:10.817Z,49.07
2018-06-30T03:23:10.846Z,48.42
2018-06-30T03:24:10.867Z,47.65
2018-06-30T03:25:10.887Z,47.58
2018-06-30T03:26:10.910Z,47.19
2018-06-30T03:27:10.937Z,46.44
2018-06-30T03:28:10.960Z,46.05
2018-06-30T03:29:10.983Z,45.40
2018-06-30T03:30:11.013Z,45.32
2018-06-30T03:31:11.030Z,44.74
2018-06-30T03:32:11.051Z,44.54
2018-06-30T03:33:11.079Z,43.96
2018-06-30T03:34:11.104Z,43.60
2018-06-30T03:35:11.123Z,43.12
2018-06-30T03:36:11.147Z,42.85
2018-06-30T03:37:11.170Z,42.65
2018-06-30T03:38:11.194Z,41.97
2018-06-30T03:39:11.221Z,42.09
2018-06-30T03:40:11.247Z,42.09
2018-06-30T03:41:11.271Z,41.99
2018-06-30T03:42:11.295Z,41.89
2018-06-30T03:43:11.315Z,41.99
2018-06-30T03:44:11.340Z,42.55
2018-06-30T03:45:11.368Z,42.17
2018-06-30T03:46:11.410Z,41.88
2018-06-30T03:47:11.420Z,42.65
2018-06-30T03:48:11.446Z,42.55
2018-06-30T03:49:11.466Z,42.85
2018-06-30T03:50:11.490Z,42.85
2018-06-30T03:51:11.520Z,42.65
2018-06-30T03:52:11.547Z,42.48
2018-06-30T03:53:11.575Z,42.57
2018-06-30T03:54:11.596Z,41.43
2018-06-30T03:55:11.619Z,40.67
2018-06-30T03:56:11.647Z,40.39
2018-06-30T03:57:11.674Z,39.24
2018-06-30T03:58:11.698Z,38.77
2018-06-30T03:59:11.721Z,38.70
2018-06-30T04:00:11.746Z,37.93
2018-06-30T04:01:11.774Z,37.27
2018-06-30T04:02:11.796Z,36.69
2018-06-30T04:03:11.826Z,36.22
2018-06-30T04:04:11.855Z,35.83
2018-06-30T04:05:11.877Z,35.53
2018-06-30T04:06:11.902Z,35.06
2018-06-30T04:07:11.935Z,35.06
2018-06-30T04:08:11.957Z,34.31
2018-06-30T04:09:11.983Z,34.01
2018-06-30T04:10:12.008Z,34.03
2018-06-30T04:11:12.032Z,33.17
2018-06-30T04:12:12.059Z,32.87
2018-06-30T04:13:12.088Z,32.48
2018-06-30T04:14:12.114Z,32.50
2018-06-30T04:15:12.135Z,32.31
2018-06-30T04:16:12.163Z,32.13
2018-06-30T04:17:12.192Z,31.84
2018-06-30T04:18:12.225Z,31.35
2018-06-30T04:19:12.250Z,31.36
2018-06-30T04:20:12.282Z,30.97
2018-06-30T04:21:12.299Z,30.88
2018-06-30T04:22:12.386Z,30.30
2018-06-30T04:23:12.356Z,30.02
2018-06-30T04:24:12.387Z,29.93
2018-06-30T04:25:12.416Z,29.63
2018-06-30T04:26:12.447Z,29.35
2018-06-30T04:27:12.470Z,29.06
2018-06-30T04:28:12.496Z,29.16
2018-06-30T04:29:12.528Z,28.78
2018-06-30T04:30:12.560Z,28.68
2018-06-30T04:31:12.583Z,28.50
2018-06-30T04:32:12.612Z,28.20
2018-06-30T04:33:12.639Z,27.91
2018-06-30T04:34:12.670Z,27.44
2018-06-30T04:35:12.704Z,27.53
2018-06-30T04:36:12.732Z,27.14
2018-06-30T04:37:12.760Z,26.96
2018-06-30T04:38:12.787Z,26.86
2018-06-30T04:39:12.824Z,26.58
2018-06-30T04:40:12.853Z,26.18
2018-06-30T04:41:12.882Z,25.90
2018-06-30T04:42:12.912Z,25.81
2018-06-30T04:43:12.937Z,25.71
2018-06-30T04:44:12.971Z,25.43
2018-06-30T04:45:13.046Z,25.13
2018-06-30T04:46:13.036Z,24.95
2018-06-30T04:47:13.065Z,24.95
2018-06-30T04:48:13.095Z,24.55
2018-06-30T04:49:13.125Z,24.47
2018-06-30T04:50:13.155Z,24.17
2018-06-30T04:51:13.191Z,23.99
2018-06-30T04:52:13.229Z,24.17
2018-06-30T04:53:13.253Z,23.89
2018-06-30T04:54:13.281Z,23.69
2018-06-30T04:55:13.320Z,23.50
2018-06-30T04:56:13.356Z,23.51
2018-06-30T04:57:13.384Z,23.31
2018-06-30T04:58:13.415Z,23.11
2018-06-30T04:59:13.454Z,23.02
2018-06-30T05:00:13.476Z,22.83
2018-06-30T05:01:13.518Z,22.93
2018-06-30T05:02:13.545Z,22.63
2018-06-30T05:03:13.575Z,22.25
2018-06-30T05:04:13.610Z,22.25
2018-06-30T05:05:13.644Z,22.25
2018-06-30T05:06:13.676Z,21.95
2018-06-30T05:07:13.715Z,22.14
2018-06-30T05:08:13.747Z,22.62
2018-06-30T05:09:13.777Z,22.61
2018-06-30T05:10:13.807Z,23.00
2018-06-30T05:11:13.845Z,23.68
2018-06-30T05:12:13.880Z,23.86
2018-06-30T05:13:13.917Z,24.05
2018-06-30T05:14:13.949Z,24.43
2018-06-30T05:15:13.978Z,24.91
2018-06-30T05:16:14.014Z,25.39
2018-06-30T05:17:14.052Z,24.99
2018-06-30T05:18:14.088Z,25.48
2018-06-30T05:19:14.123Z,25.77
2018-06-30T05:20:14.152Z,25.87
2018-06-30T05:21:14.185Z,26.15
2018-06-30T05:22:14.218Z,26.25
2018-06-30T05:23:14.257Z,26.25
2018-06-30T05:24:14.297Z,26.43
2018-06-30T05:25:14.326Z,26.62
2018-06-30T05:26:14.360Z,26.72
2018-06-30T05:27:14.398Z,26.71
2018-06-30T05:28:14.434Z,26.81
2018-06-30T05:29:14.466Z,26.81
2018-06-30T05:30:14.501Z,26.90
2018-06-30T05:31:14.532Z,26.79
2018-06-30T05:32:14.566Z,27.28
2018-06-30T05:33:14.620Z,27.28
2018-06-30T05:34:14.637Z,27.48
2018-06-30T05:35:14.671Z,27.38
2018-06-30T05:36:14.703Z,27.47
2018-06-30T05:37:14.743Z,27.58
2018-06-30T05:38:14.774Z,27.66
2018-06-30T05:39:14.811Z,28.05
2018-06-30T05:40:14.844Z,27.56
2018-06-30T05:41:14.919Z,27.76
2018-06-30T05:42:14.907Z,27.66
2018-06-30T05:43:14.943Z,27.66
2018-06-30T05:44:14.977Z,27.09
2018-06-30T05:45:15.015Z,26.72
2018-06-30T05:46:15.048Z,25.95
2018-06-30T05:47:15.075Z,24.90
2018-06-30T05:48:15.107Z,24.13
2018-06-30T05:49:15.143Z,23.94
2018-06-30T05:50:15.173Z,23.56
2018-06-30T05:51:15.212Z,23.08
2018-06-30T05:52:15.243Z,22.88
2018-06-30T05:53:15.278Z,22.50
2018-06-30T05:54:15.304Z,22.12
2018-06-30T05:55:15.332Z,22.02
2018-06-30T05:56:15.363Z,21.53
2018-06-30T05:57:15.401Z,21.44
2018-06-30T05:58:15.433Z,21.15
2018-06-30T05:59:15.522Z,20.95
2018-06-30T06:00:15.492Z,20.76
2018-06-30T06:01:15.522Z,20.96
2018-06-30T06:02:15.552Z,20.67
2018-06-30T06:03:15.589Z,20.67
2018-06-30T06:04:15.620Z,20.28
2018-06-30T06:05:15.649Z,20.18
2018-06-30T06:06:15.682Z,19.69
2018-06-30T06:07:15.715Z,19.89
2018-06-30T06:08:15.747Z,19.70
2018-06-30T06:09:15.780Z,19.80
2018-06-30T06:10:15.811Z,18.91
2018-06-30T06:11:15.839Z,19.01
2018-06-30T06:12:15.875Z,19.40
2018-06-30T06:13:15.906Z,19.21
2018-06-30T06:14:15.937Z,19.32
2018-06-30T06:15:15.973Z,18.73
2018-06-30T06:16:15.998Z,18.82
2018-06-30T06:17:16.033Z,18.63
2018-06-30T06:18:16.064Z,18.82
2018-06-30T06:19:16.101Z,18.23
2018-06-30T06:20:16.135Z,18.44
2018-06-30T06:21:16.183Z,18.04
2018-06-30T06:22:16.194Z,18.34
2018-06-30T06:23:16.236Z,17.94
2018-06-30T06:24:16.264Z,18.04
2018-06-30T06:25:16.302Z,18.14
2018-06-30T06:26:16.329Z,18.33
2018-06-30T06:27:16.359Z,18.62
2018-06-30T06:28:16.392Z,19.57
2018-06-30T06:29:16.431Z,20.23
2018-06-30T06:30:16.463Z,21.19
2018-06-30T06:31:16.494Z,22.26
2018-06-30T06:32:16.531Z,22.73
2018-06-30T06:33:16.560Z,22.91
2018-06-30T06:34:16.591Z,23.69
2018-06-30T06:35:16.628Z,24.08
2018-06-30T06:36:16.674Z,23.97
2018-06-30T06:37:16.691Z,24.05
2018-06-30T06:38:16.722Z,24.64
2018-06-30T06:39:16.760Z,24.82
2018-06-30T06:40:16.793Z,24.73
2018-06-30T06:41:16.827Z,25.01
2018-06-30T06:42:16.858Z,25.01
2018-06-30T06:43:16.886Z,25.39
2018-06-30T06:44:16.919Z,25.39
2018-06-30T06:45:16.954Z,25.49
2018-06-30T06:46:16.984Z,26.06
2018-06-30T06:47:17.012Z,26.15
2018-06-30T06:48:17.043Z,26.06
2018-06-30T06:49:17.077Z,26.04
2018-06-30T06:50:17.108Z,26.14
2018-06-30T06:51:17.142Z,26.34
2018-06-30T06:52:17.204Z,26.04
2018-06-30T06:53:17.200Z,26.14
2018-06-30T06:54:17.229Z,26.23
2018-06-30T06:55:17.266Z,26.23
2018-06-30T06:56:17.352Z,26.23
2018-06-30T06:57:17.327Z,26.31
2018-06-30T06:58:17.354Z,26.02
2018-06-30T06:59:17.385Z,26.12
2018-06-30T07:00:17.418Z,26.31
2018-06-30T07:01:17.448Z,26.21
2018-06-30T07:02:17.474Z,26.31
2018-06-30T07:03:17.503Z,26.10
2018-06-30T07:04:17.536Z,26.21
2018-06-30T07:05:17.565Z,26.30
2018-06-30T07:06:17.598Z,26.50
2018-06-30T07:07:17.628Z,26.69
2018-06-30T07:08:17.659Z,26.50
2018-06-30T07:09:17.685Z,26.79
2018-06-30T07:10:17.720Z,26.78
2018-06-30T07:11:17.747Z,26.78
2018-06-30T07:12:17.774Z,26.58
2018-06-30T07:13:17.804Z,26.39
2018-06-30T07:14:17.827Z,26.48
2018-06-30T07:15:17.860Z,26.39
2018-06-30T07:16:17.894Z,26.48
2018-06-30T07:17:18.028Z,26.68
2018-06-30T07:18:17.947Z,26.68
2018-06-30T07:19:17.998Z,26.68
2018-06-30T07:20:18.006Z,26.58
2018-06-30T07:21:18.036Z,26.76
2018-06-30T07:22:18.068Z,27.05
2018-06-30T07:23:18.095Z,26.76
2018-06-30T07:24:18.123Z,26.76
2018-06-30T07:25:18.152Z,26.86
2018-06-30T07:26:18.183Z,26.67
2018-06-30T07:27:18.210Z,26.67
2018-06-30T07:28:18.240Z,26.76
2018-06-30T07:29:18.269Z,26.67
2018-06-30T07:30:18.295Z,26.47
2018-06-30T07:31:18.325Z,26.86
2018-06-30T07:32:18.352Z,26.47
2018-06-30T07:33:18.389Z,26.57
2018-06-30T07:34:18.405Z,26.26
2018-06-30T07:35:18.434Z,26.36
2018-06-30T07:36:18.466Z,26.55
2018-06-30T07:37:18.559Z,26.17
2018-06-30T07:38:18.526Z,26.36
2018-06-30T07:39:18.556Z,26.55
2018-06-30T07:40:18.580Z,26.26
2018-06-30T07:41:18.608Z,26.36
2018-06-30T07:42:18.639Z,26.17
2018-06-30T07:43:18.728Z,26.36
2018-06-30T07:44:18.695Z,26.26
2018-06-30T07:45:18.722Z,26.17
2018-06-30T07:46:18.745Z,26.26
2018-06-30T07:47:18.777Z,26.26
2018-06-30T07:48:18.805Z,26.44
2018-06-30T07:49:18.836Z,26.34
2018-06-30T07:50:18.910Z,26.34
2018-06-30T07:51:18.889Z,26.83
2018-06-30T07:52:18.914Z,26.64
2018-06-30T07:53:18.942Z,26.73
2018-06-30T07:54:18.979Z,26.73
2018-06-30T07:55:19.004Z,26.64
2018-06-30T07:56:19.030Z,26.73
2018-06-30T07:57:19.056Z,26.54
2018-06-30T07:58:19.084Z,26.54
2018-06-30T07:59:19.110Z,26.54
2018-06-30T08:00:19.139Z,26.54
2018-06-30T08:01:19.167Z,26.64
2018-06-30T08:02:19.196Z,26.93
2018-06-30T08:03:19.227Z,26.72
2018-06-30T08:04:19.250Z,26.62
2018-06-30T08:05:19.275Z,26.72
2018-06-30T08:06:19.309Z,27.01
2018-06-30T08:07:19.349Z,26.53
2018-06-30T08:08:19.365Z,26.92
2018-06-30T08:09:19.395Z,27.11
2018-06-30T08:10:19.414Z,26.82
2018-06-30T08:11:19.441Z,26.82
2018-06-30T08:12:19.475Z,26.92
2018-06-30T08:13:19.501Z,26.92
2018-06-30T08:14:19.531Z,27.21
2018-06-30T08:15:19.551Z,27.01
2018-06-30T08:16:19.576Z,27.11
2018-06-30T08:17:19.606Z,27.40
2018-06-30T08:18:19.636Z,27.39
2018-06-30T08:19:19.669Z,27.39
2018-06-30T08:20:19.689Z,27.29
2018-06-30T08:21:19.717Z,27.48
2018-06-30T08:22:19.746Z,27.19
2018-06-30T08:23:19.769Z,27.39
2018-06-30T08:24:19.805Z,27.48
2018-06-30T08:25:19.827Z,27.48
2018-06-30T08:26:19.849Z,27.78
2018-06-30T08:27:19.880Z,27.58
2018-06-30T08:28:19.908Z,27.68
2018-06-30T08:29:19.939Z,27.68
2018-06-30T08:30:19.958Z,27.58
2018-06-30T08:31:19.986Z,27.87
2018-06-30T08:32:20.017Z,27.87
2018-06-30T08:33:20.044Z,28.07
2018-06-30T08:34:20.112Z,27.97
2018-06-30T08:35:20.096Z,27.97
2018-06-30T08:36:20.160Z,28.36
2018-06-30T08:37:20.151Z,27.78
2018-06-30T08:38:20.182Z,28.07
2018-06-30T08:39:20.210Z,28.15
2018-06-30T08:40:20.234Z,28.15
2018-06-30T08:41:20.263Z,27.96
2018-06-30T08:42:20.286Z,28.25
2018-06-30T08:43:20.314Z,28.15
2018-06-30T08:44:20.341Z,28.45
2018-06-30T08:45:20.386Z,28.34
2018-06-30T08:46:20.395Z,28.34
2018-06-30T08:47:20.422Z,28.44
2018-06-30T08:48:20.445Z,28.25
2018-06-30T08:49:20.474Z,27.86
2018-06-30T08:50:20.505Z,28.15
2018-06-30T08:51:20.533Z,28.64
2018-06-30T08:52:20.554Z,28.54
2018-06-30T08:53:20.582Z,28.54
2018-06-30T08:54:20.612Z,28.64
2018-06-30T08:55:20.666Z,28.54
2018-06-30T08:56:20.665Z,28.54
2018-06-30T08:57:20.691Z,28.44
2018-06-30T08:58:20.712Z,28.44
2018-06-30T08:59:20.740Z,28.54
2018-06-30T09:00:20.772Z,28.54
2018-06-30T09:01:20.799Z,28.54
2018-06-30T09:02:20.822Z,28.64
2018-06-30T09:03:20.849Z,28.54
2018-06-30T09:04:20.873Z,28.83
2018-06-30T09:05:20.903Z,28.54
2018-06-30T09:06:20.983Z,28.93
2018-06-30T09:07:20.957Z,28.74
2018-06-30T09:08:20.983Z,28.83
2018-06-30T09:09:21.009Z,28.91
2018-06-30T09:10:21.038Z,29.01
2018-06-30T09:11:21.065Z,28.81
2018-06-30T09:12:21.116Z,28.72
2018-06-30T09:13:21.118Z,29.02
2018-06-30T09:14:21.140Z,29.01
2018-06-30T09:15:21.167Z,28.91
2018-06-30T09:16:21.198Z,29.11
2018-06-30T09:17:21.231Z,28.91
2018-06-30T09:18:21.247Z,29.11
2018-06-30T09:19:21.274Z,29.21
2018-06-30T09:20:21.337Z,29.30
2018-06-30T09:21:21.329Z,29.21
2018-06-30T09:22:21.361Z,29.11
2018-06-30T09:23:21.386Z,29.30
2018-06-30T09:24:21.404Z,29.21
2018-06-30T09:25:21.433Z,29.11
2018-06-30T09:26:21.462Z,29.30
2018-06-30T09:27:21.490Z,29.40
2018-06-30T09:28:21.519Z,29.40
2018-06-30T09:29:21.546Z,29.98
2018-06-30T09:30:21.567Z,29.98
2018-06-30T09:31:21.594Z,29.98
2018-06-30T09:32:21.624Z,29.79
2018-06-30T09:33:21.652Z,29.69
2018-06-30T09:34:21.675Z,29.68
2018-06-30T09:35:21.700Z,29.79
2018-06-30T09:36:21.724Z,29.69
2018-06-30T09:37:21.751Z,29.77
2018-06-30T09:38:21.780Z,29.60
2018-06-30T09:39:21.811Z,29.69
2018-06-30T09:40:21.833Z,29.58
2018-06-30T09:41:21.859Z,29.68
2018-06-30T09:42:21.893Z,29.68
2018-06-30T09:43:21.914Z,29.58
2018-06-30T09:44:21.997Z,29.77
2018-06-30T09:45:21.966Z,29.68
2018-06-30T09:46:21.990Z,29.87
2018-06-30T09:47:22.016Z,29.77
2018-06-30T09:48:22.044Z,29.87
2018-06-30T09:49:22.074Z,29.77
2018-06-30T09:50:22.092Z,30.16
2018-06-30T09:51:22.119Z,29.97
2018-06-30T09:52:22.146Z,29.87
2018-06-30T09:53:22.172Z,30.07
2018-06-30T09:54:22.203Z,30.07
2018-06-30T09:55:22.243Z,30.26
2018-06-30T09:56:22.249Z,30.16
2018-06-30T09:57:22.278Z,30.26
2018-06-30T09:58:22.306Z,30.26
2018-06-30T09:59:22.334Z,30.65
2018-06-30T10:00:22.359Z,30.65
2018-06-30T10:01:22.387Z,30.65
2018-06-30T10:02:22.408Z,30.65
2018-06-30T10:03:22.435Z,30.65
2018-06-30T10:04:22.463Z,30.45
2018-06-30T10:05:22.489Z,30.45
2018-06-30T10:06:22.511Z,30.74
2018-06-30T10:07:22.537Z,30.74
2018-06-30T10:08:22.566Z,30.73
2018-06-30T10:09:22.592Z,30.94
2018-06-30T10:10:22.621Z,30.84
2018-06-30T10:11:22.648Z,30.92
2018-06-30T10:12:22.668Z,31.02
2018-06-30T10:13:22.697Z,31.04
2018-06-30T10:14:22.724Z,30.94
2018-06-30T10:15:22.749Z,31.13
2018-06-30T10:16:22.778Z,30.94
2018-06-30T10:17:22.806Z,30.74
2018-06-30T10:18:22.826Z,31.02
2018-06-30T10:19:22.919Z,30.92
2018-06-30T10:20:22.881Z,30.84
2018-06-30T10:21:22.910Z,30.84
2018-06-30T10:22:22.930Z,30.73
2018-06-30T10:23:22.957Z,31.02
2018-06-30T10:24:22.983Z,30.92
2018-06-30T10:25:23.006Z,30.92
2018-06-30T10:26:23.035Z,30.82
2018-06-30T10:27:23.062Z,30.73
2018-06-30T10:28:23.086Z,31.21
2018-06-30T10:29:23.115Z,31.21
2018-06-30T10:30:23.142Z,31.21
2018-06-30T10:31:23.230Z,30.92
2018-06-30T10:32:23.192Z,31.12
2018-06-30T10:33:23.218Z,31.31
2018-06-30T10:34:23.239Z,31.02
2018-06-30T10:35:23.269Z,31.12
2018-06-30T10:36:23.296Z,31.21
2018-06-30T10:37:23.327Z,31.21
2018-06-30T10:38:23.345Z,31.21
2018-06-30T10:39:23.373Z,31.12
2018-06-30T10:40:23.398Z,31.21
2018-06-30T10:41:23.424Z,31.31
2018-06-30T10:42:23.455Z,31.31
2018-06-30T10:43:23.474Z,31.31
2018-06-30T10:44:23.510Z,31.41
2018-06-30T10:45:23.525Z,31.21
2018-06-30T10:46:23.556Z,31.21
2018-06-30T10:47:23.582Z,31.12
2018-06-30T10:48:23.609Z,31.31
2018-06-30T10:49:23.636Z,30.92
2018-06-30T10:50:23.657Z,31.31
2018-06-30T10:51:23.683Z,31.41
2018-06-30T10:52:23.713Z,31.21
2018-06-30T10:53:23.738Z,31.31
2018-06-30T10:54:23.763Z,31.21
2018-06-30T10:55:23.794Z,31.12
2018-06-30T10:56:23.810Z,31.21
2018-06-30T10:57:23.837Z,31.02
2018-06-30T10:58:23.873Z,31.41
2018-06-30T10:59:23.891Z,31.21
2018-06-30T11:00:23.975Z,30.92
2018-06-30T11:01:23.944Z,31.12
2018-06-30T11:02:23.972Z,31.12
2018-06-30T11:03:23.998Z,31.02
2018-06-30T11:04:24.024Z,31.31
2018-06-30T11:05:24.048Z,31.21
2018-06-30T11:06:24.072Z,31.31
2018-06-30T11:07:24.098Z,31.41
2018-06-30T11:08:24.129Z,31.12
2018-06-30T11:09:24.153Z,31.41
2018-06-30T11:10:24.174Z,31.41
2018-06-30T11:11:24.201Z,31.31
2018-06-30T11:12:24.225Z,31.41
2018-06-30T11:13:24.253Z,31.41
2018-06-30T11:14:24.279Z,31.31
2018-06-30T11:15:24.307Z,31.50
2018-06-30T11:16:24.332Z,31.50
2018-06-30T11:17:24.366Z,31.50
2018-06-30T11:18:24.384Z,31.60
2018-06-30T11:19:24.411Z,31.60
2018-06-30T11:20:24.435Z,31.50
2018-06-30T11:21:24.476Z,31.60
2018-06-30T11:22:24.492Z,31.50
2018-06-30T11:23:24.508Z,31.60
2018-06-30T11:24:24.540Z,31.41
2018-06-30T11:25:24.570Z,31.50
2018-06-30T11:26:24.583Z,31.31
2018-06-30T11:27:24.611Z,31.21
2018-06-30T11:28:24.638Z,31.31
2018-06-30T11:29:24.699Z,31.31
2018-06-30T11:30:24.697Z,31.02
2018-06-30T11:31:24.720Z,31.12
2018-06-30T11:32:24.739Z,31.21
2018-06-30T11:33:24.765Z,31.31
2018-06-30T11:34:24.795Z,31.31
2018-06-30T11:35:24.820Z,31.12
2018-06-30T11:36:24.849Z,31.21
2018-06-30T11:37:24.877Z,31.02
2018-06-30T11:38:24.901Z,31.41
2018-06-30T11:39:24.924Z,31.21
2018-06-30T11:40:25.019Z,31.12
2018-06-30T11:41:24.984Z,31.21
2018-06-30T11:42:24.997Z,31.31
2018-06-30T11:43:25.024Z,31.21
2018-06-30T11:44:25.059Z,31.12
2018-06-30T11:45:25.074Z,31.21
2018-06-30T11:46:25.105Z,31.12
2018-06-30T11:47:25.127Z,31.12
2018-06-30T11:48:25.154Z,31.21
2018-06-30T11:49:25.206Z,31.02
2018-06-30T11:50:25.283Z,31.02
2018-06-30T11:51:25.235Z,30.92
2018-06-30T11:52:25.258Z,31.21
2018-06-30T11:53:25.283Z,31.12
2018-06-30T11:54:25.306Z,31.12
2018-06-30T11:55:25.332Z,31.12
2018-06-30T11:56:25.360Z,31.12
2018-06-30T11:57:25.386Z,30.82
2018-06-30T11:58:25.406Z,31.21
2018-06-30T11:59:25.432Z,31.12
2018-06-30T12:00:25.461Z,31.12
2018-06-30T12:01:25.488Z,30.92
2018-06-30T12:02:25.516Z,31.02
2018-06-30T12:03:25.560Z,31.21
2018-06-30T12:04:25.562Z,30.92
2018-06-30T12:05:25.587Z,31.21
2018-06-30T12:06:25.617Z,30.92
2018-06-30T12:07:25.642Z,30.82
2018-06-30T12:08:25.669Z,30.82
2018-06-30T12:09:25.697Z,31.12
2018-06-30T12:10:25.719Z,30.82
2018-06-30T12:11:25.745Z,30.73
2018-06-30T12:12:25.768Z,31.12
2018-06-30T12:13:25.798Z,31.02
2018-06-30T12:14:25.824Z,30.82
2018-06-30T12:15:25.848Z,31.02
2018-06-30T12:16:25.874Z,30.92
2018-06-30T12:17:25.898Z,30.92
2018-06-30T12:18:25.920Z,30.92
2018-06-30T12:19:25.945Z,30.73
2018-06-30T12:20:25.977Z,31.12
2018-06-30T12:21:26.004Z,30.82
2018-06-30T12:22:26.026Z,30.82
2018-06-30T12:23:26.050Z,30.82
2018-06-30T12:24:26.074Z,30.82
2018-06-30T12:25:26.100Z,30.73
2018-06-30T12:26:26.128Z,30.73
2018-06-30T12:27:26.155Z,31.02
2018-06-30T12:28:26.179Z,30.63
2018-06-30T12:29:26.202Z,30.73
2018-06-30T12:30:26.257Z,30.73
2018-06-30T12:31:26.257Z,30.73
2018-06-30T12:32:26.327Z,30.92
2018-06-30T12:33:26.310Z,30.73
2018-06-30T12:34:26.335Z,30.82
2018-06-30T12:35:26.358Z,30.73
2018-06-30T12:36:26.402Z,30.92
2018-06-30T12:37:26.412Z,30.63
2018-06-30T12:38:26.431Z,30.73
2018-06-30T12:39:26.458Z,30.92
2018-06-30T12:40:26.487Z,30.92
2018-06-30T12:41:26.512Z,31.02
2018-06-30T12:42:26.540Z,30.82
2018-06-30T12:43:26.567Z,31.02
2018-06-30T12:44:26.589Z,31.02
2018-06-30T12:45:26.616Z,30.82
2018-06-30T12:46:26.644Z,30.82
2018-06-30T12:47:26.669Z,30.73
2018-06-30T12:48:26.693Z,30.92
2018-06-30T12:49:26.724Z,31.12
2018-06-30T12:50:26.740Z,30.73
2018-06-30T12:51:26.765Z,30.92
2018-06-30T12:52:26.796Z,31.12